Folsom, CA

4:47 PM PST on December 22, 2014 (GMT -0800)
North Lexington | Change Station
CLOSE
Current Station
Personal Weather Station
Location: Folsom, CA
Elevation: 371 ft
Nearby Weather Stations

Elev 371 ft 38.67 °N, 121.13 °W | Updated 2 minutes ago

Partly Cloudy
Partly Cloudy
55.5 °F
Feels Like 55.5 °F
N
0.0
Wind Variable Wind from North
Gusts 0.0 mph

Today
High -- | Low -- °F
--% Chance of Precip.
Yesterday
High -- | Low -- °F
Precip. -- in
7:19 AM 4:47 PM
New Moon, 1% visible
Pressure 30.18 in
Visibility 10.0 miles
Clouds Scattered Clouds 1200 ft
Dew Point 53 °F
Humidity 90%
Rainfall 0.00 in
Snow Depth Not available.
UV 0 out of 12
Pollen 5.30 out of 12
Air Quality Not available.
Flu Activity Not available.
METAR KMHR 222345Z 30004KT 10SM SCT012 15/15 A3018

More Conditions Fewer Conditions

Pressure 30.18 in
Visibility 10.0 miles
Clouds Scattered Clouds 1200 ft
Dew Point 53 °F
Humidity 90%
Rainfall 0.00 in
Snow Depth Not available.
UV 0 out of 12
Pollen 5.30 out of 12
Air Quality Not available.
Flu Activity Not available.
METAR KMHR 222345Z 30004KT 10SM SCT012 15/15 A3018

More Conditions Fewer Conditions

10-Day Weather Forecast

Almanac

Astronomy

Dec. 22, 2014 Rise Set
Actual Time
Civil Twilight
Nautical Twilight
Astronomical Twilight
Moon
Length of Visible Light
Length of Day
Tomorrow will be .
, % of the Moon is Illuminated

Today's Extremes

State Highs State Lows

Community

WunderPhotos

Upload Photos

1,779,740 photos uploaded!

WunderBlogs® & News

Nearby

Air Quality

  Air Quality AQ Index Pollutant
Not available.

Snow Depth

Station Depth Elevation

Earthquake Activity

City Distance Mag. Time & Date
Minimum magnitude displayed is 2.5.

Coastal Water Temperatures

Place Temperature

Nearby Weather Stations